sensor_id;sensor_type;location;lat;lon;timestamp;P1;durP1;ratioP1;P2;durP2;ratioP2
38037;SDS011;23843;51.320;12.340;2023-12-20T00:01:04;0.40;;;0.40;;
38037;SDS011;23843;51.320;12.340;2023-12-20T00:03:30;0.20;;;0.20;;
38037;SDS011;23843;51.320;12.340;2023-12-20T00:05:55;0.20;;;0.20;;
38037;SDS011;23843;51.320;12.340;2023-12-20T00:08:22;0.43;;;0.33;;
38037;SDS011;23843;51.320;12.340;2023-12-20T00:10:48;0.33;;;0.30;;
38037;SDS011;23843;51.320;12.340;2023-12-20T00:13:13;0.23;;;0.20;;
38037;SDS011;23843;51.320;12.340;2023-12-20T00:15:39;0.43;;;0.40;;
38037;SDS011;23843;51.320;12.340;2023-12-20T00:18:04;0.40;;;0.30;;
38037;SDS011;23843;51.320;12.340;2023-12-20T00:20:30;0.40;;;0.40;;
38037;SDS011;23843;51.320;12.340;2023-12-20T00:22:56;0.10;;;0.10;;
38037;SDS011;23843;51.320;12.340;2023-12-20T00:25:23;0.20;;;0.20;;
38037;SDS011;23843;51.320;12.340;2023-12-20T00:27:49;0.27;;;0.27;;
38037;SDS011;23843;51.320;12.340;2023-12-20T00:30:14;0.10;;;0.10;;
38037;SDS011;23843;51.320;12.340;2023-12-20T00:32:40;0.20;;;0.20;;
38037;SDS011;23843;51.320;12.340;2023-12-20T00:35:06;0.30;;;0.20;;
38037;SDS011;23843;51.320;12.340;2023-12-20T00:37:31;0.27;;;0.20;;
38037;SDS011;23843;51.320;12.340;2023-12-20T00:39:57;0.20;;;0.20;;
38037;SDS011;23843;51.320;12.340;2023-12-20T00:42:24;0.20;;;0.20;;
38037;SDS011;23843;51.320;12.340;2023-12-20T00:44:49;0.07;;;0.07;;
38037;SDS011;23843;51.320;12.340;2023-12-20T00:47:15;0.30;;;0.30;;
38037;SDS011;23843;51.320;12.340;2023-12-20T00:49:40;0.30;;;0.30;;
38037;SDS011;23843;51.320;12.340;2023-12-20T00:52:06;0.57;;;0.40;;
38037;SDS011;23843;51.320;12.340;2023-12-20T00:54:31;0.20;;;0.20;;
38037;SDS011;23843;51.320;12.340;2023-12-20T00:56:57;0.10;;;0.10;;
38037;SDS011;23843;51.320;12.340;2023-12-20T00:59:24;0.10;;;0.10;;
38037;SDS011;23843;51.320;12.340;2023-12-20T01:01:49;0.20;;;0.20;;
38037;SDS011;23843;51.320;12.340;2023-12-20T01:04:15;0.17;;;0.17;;
38037;SDS011;23843;51.320;12.340;2023-12-20T01:06:40;0.10;;;0.10;;
38037;SDS011;23843;51.320;12.340;2023-12-20T01:09:06;0.10;;;0.10;;
38037;SDS011;23843;51.320;12.340;2023-12-20T01:11:31;0.27;;;0.10;;
38037;SDS011;23843;51.320;12.340;2023-12-20T01:13:57;0.10;;;0.10;;
38037;SDS011;23843;51.320;12.340;2023-12-20T01:16:23;0.20;;;0.20;;
38037;SDS011;23843;51.320;12.340;2023-12-20T01:18:49;0.20;;;0.13;;
38037;SDS011;23843;51.320;12.340;2023-12-20T01:21:14;0.20;;;0.20;;
38037;SDS011;23843;51.320;12.340;2023-12-20T01:23:40;0.00;;;0.00;;
38037;SDS011;23843;51.320;12.340;2023-12-20T01:26:06;0.20;;;0.20;;
38037;SDS011;23843;51.320;12.340;2023-12-20T01:28:31;0.17;;;0.17;;
38037;SDS011;23843;51.320;12.340;2023-12-20T01:30:57;0.10;;;0.10;;
38037;SDS011;23843;51.320;12.340;2023-12-20T01:33:24;0.10;;;0.10;;
38037;SDS011;23843;51.320;12.340;2023-12-20T01:35:49;0.00;;;0.00;;
38037;SDS011;23843;51.320;12.340;2023-12-20T01:38:15;0.10;;;0.10;;
38037;SDS011;23843;51.320;12.340;2023-12-20T01:40:40;0.10;;;0.10;;
38037;SDS011;23843;51.320;12.340;2023-12-20T01:43:07;0.10;;;0.10;;
38037;SDS011;23843;51.320;12.340;2023-12-20T01:45:33;0.00;;;0.00;;
38037;SDS011;23843;51.320;12.340;2023-12-20T01:47:59;0.10;;;0.10;;
38037;SDS011;23843;51.320;12.340;2023-12-20T01:50:26;0.30;;;0.20;;
38037;SDS011;23843;51.320;12.340;2023-12-20T01:52:53;0.10;;;0.10;;
38037;SDS011;23843;51.320;12.340;2023-12-20T01:55:20;0.03;;;0.03;;
38037;SDS011;23843;51.320;12.340;2023-12-20T01:57:46;0.10;;;0.10;;
38037;SDS011;23843;51.320;12.340;2023-12-20T02:00:12;0.00;;;0.00;;
38037;SDS011;23843;51.320;12.340;2023-12-20T02:02:40;0.10;;;0.10;;
38037;SDS011;23843;51.320;12.340;2023-12-20T02:05:06;0.00;;;0.00;;
38037;SDS011;23843;51.320;12.340;2023-12-20T02:07:33;0.00;;;0.00;;
38037;SDS011;23843;51.320;12.340;2023-12-20T02:09:58;0.10;;;0.10;;
38037;SDS011;23843;51.320;12.340;2023-12-20T02:12:24;0.00;;;0.00;;
38037;SDS011;23843;51.320;12.340;2023-12-20T02:14:49;0.10;;;0.10;;
38037;SDS011;23843;51.320;12.340;2023-12-20T02:17:15;0.00;;;0.00;;
38037;SDS011;23843;51.320;12.340;2023-12-20T02:19:41;0.20;;;0.10;;
38037;SDS011;23843;51.320;12.340;2023-12-20T02:22:09;0.10;;;0.10;;
38037;SDS011;23843;51.320;12.340;2023-12-20T02:24:34;0.10;;;0.10;;
38037;SDS011;23843;51.320;12.340;2023-12-20T02:27:00;0.03;;;0.03;;
38037;SDS011;23843;51.320;12.340;2023-12-20T02:29:25;0.03;;;0.03;;
38037;SDS011;23843;51.320;12.340;2023-12-20T02:31:51;0.00;;;0.00;;
38037;SDS011;23843;51.320;12.340;2023-12-20T02:34:17;0.10;;;0.10;;
38037;SDS011;23843;51.320;12.340;2023-12-20T02:36:42;0.10;;;0.00;;
38037;SDS011;23843;51.320;12.340;2023-12-20T02:39:09;0.00;;;0.00;;
38037;SDS011;23843;51.320;12.340;2023-12-20T02:41:35;0.10;;;0.10;;
38037;SDS011;23843;51.320;12.340;2023-12-20T02:44:01;0.03;;;0.03;;
38037;SDS011;23843;51.320;12.340;2023-12-20T02:46:26;0.00;;;0.00;;
38037;SDS011;23843;51.320;12.340;2023-12-20T02:48:52;0.10;;;0.10;;
38037;SDS011;23843;51.320;12.340;2023-12-20T02:51:18;0.10;;;0.10;;
38037;SDS011;23843;51.320;12.340;2023-12-20T02:53:43;0.00;;;0.00;;
38037;SDS011;23843;51.320;12.340;2023-12-20T02:56:10;0.00;;;0.00;;
38037;SDS011;23843;51.320;12.340;2023-12-20T02:58:35;0.10;;;0.10;;
38037;SDS011;23843;51.320;12.340;2023-12-20T03:01:01;0.10;;;0.10;;
38037;SDS011;23843;51.320;12.340;2023-12-20T03:03:26;0.00;;;0.00;;
38037;SDS011;23843;51.320;12.340;2023-12-20T03:05:52;0.00;;;0.00;;
38037;SDS011;23843;51.320;12.340;2023-12-20T03:08:18;0.10;;;0.10;;
38037;SDS011;23843;51.320;12.340;2023-12-20T03:10:43;0.10;;;0.10;;
38037;SDS011;23843;51.320;12.340;2023-12-20T03:13:10;0.10;;;0.10;;
38037;SDS011;23843;51.320;12.340;2023-12-20T03:15:35;0.10;;;0.10;;
38037;SDS011;23843;51.320;12.340;2023-12-20T03:18:01;0.10;;;0.10;;
38037;SDS011;23843;51.320;12.340;2023-12-20T03:20:26;0.10;;;0.10;;
38037;SDS011;23843;51.320;12.340;2023-12-20T03:22:52;0.10;;;0.10;;
38037;SDS011;23843;51.320;12.340;2023-12-20T03:25:17;0.10;;;0.10;;
38037;SDS011;23843;51.320;12.340;2023-12-20T03:27:43;0.00;;;0.00;;
38037;SDS011;23843;51.320;12.340;2023-12-20T03:30:10;0.10;;;0.10;;
38037;SDS011;23843;51.320;12.340;2023-12-20T03:32:36;0.13;;;0.00;;
38037;SDS011;23843;51.320;12.340;2023-12-20T03:35:02;0.00;;;0.00;;
38037;SDS011;23843;51.320;12.340;2023-12-20T03:37:28;0.00;;;0.00;;
38037;SDS011;23843;51.320;12.340;2023-12-20T03:39:53;0.00;;;0.00;;
38037;SDS011;23843;51.320;12.340;2023-12-20T03:42:19;0.00;;;0.00;;
38037;SDS011;23843;51.320;12.340;2023-12-20T03:44:44;0.00;;;0.00;;
38037;SDS011;23843;51.320;12.340;2023-12-20T03:47:11;0.20;;;0.00;;
38037;SDS011;23843;51.320;12.340;2023-12-20T03:49:37;0.03;;;0.03;;
38037;SDS011;23843;51.320;12.340;2023-12-20T03:52:02;0.10;;;0.07;;
38037;SDS011;23843;51.320;12.340;2023-12-20T03:54:28;0.00;;;0.00;;
38037;SDS011;23843;51.320;12.340;2023-12-20T03:56:54;0.00;;;0.00;;
38037;SDS011;23843;51.320;12.340;2023-12-20T03:59:19;0.00;;;0.00;;
38037;SDS011;23843;51.320;12.340;2023-12-20T04:01:45;0.00;;;0.00;;
38037;SDS011;23843;51.320;12.340;2023-12-20T04:04:12;0.00;;;0.00;;
38037;SDS011;23843;51.320;12.340;2023-12-20T04:06:38;0.00;;;0.00;;
38037;SDS011;23843;51.320;12.340;2023-12-20T04:09:04;0.00;;;0.00;;
38037;SDS011;23843;51.320;12.340;2023-12-20T04:11:29;0.10;;;0.10;;
38037;SDS011;23843;51.320;12.340;2023-12-20T04:13:55;0.00;;;0.00;;
38037;SDS011;23843;51.320;12.340;2023-12-20T04:16:20;0.13;;;0.03;;
38037;SDS011;23843;51.320;12.340;2023-12-20T04:18:46;0.00;;;0.00;;
38037;SDS011;23843;51.320;12.340;2023-12-20T04:21:13;0.10;;;0.10;;
38037;SDS011;23843;51.320;12.340;2023-12-20T04:23:38;0.10;;;0.10;;
38037;SDS011;23843;51.320;12.340;2023-12-20T04:26:04;0.10;;;0.10;;
38037;SDS011;23843;51.320;12.340;2023-12-20T04:28:29;0.10;;;0.10;;
38037;SDS011;23843;51.320;12.340;2023-12-20T04:30:55;0.00;;;0.00;;
38037;SDS011;23843;51.320;12.340;2023-12-20T04:33:20;0.43;;;0.43;;
38037;SDS011;23843;51.320;12.340;2023-12-20T04:35:46;0.00;;;0.00;;
38037;SDS011;23843;51.320;12.340;2023-12-20T04:38:13;0.00;;;0.00;;
38037;SDS011;23843;51.320;12.340;2023-12-20T04:40:38;0.00;;;0.00;;
38037;SDS011;23843;51.320;12.340;2023-12-20T04:43:04;0.00;;;0.00;;
38037;SDS011;23843;51.320;12.340;2023-12-20T04:45:29;0.00;;;0.00;;
38037;SDS011;23843;51.320;12.340;2023-12-20T04:47:55;0.10;;;0.00;;
38037;SDS011;23843;51.320;12.340;2023-12-20T04:50:20;0.10;;;0.10;;
38037;SDS011;23843;51.320;12.340;2023-12-20T04:52:46;0.10;;;0.10;;
38037;SDS011;23843;51.320;12.340;2023-12-20T04:55:13;0.20;;;0.20;;
38037;SDS011;23843;51.320;12.340;2023-12-20T04:57:38;0.10;;;0.10;;
38037;SDS011;23843;51.320;12.340;2023-12-20T05:00:05;0.00;;;0.00;;
38037;SDS011;23843;51.320;12.340;2023-12-20T05:02:31;0.00;;;0.00;;
38037;SDS011;23843;51.320;12.340;2023-12-20T05:04:57;0.10;;;0.10;;
38037;SDS011;23843;51.320;12.340;2023-12-20T05:07:22;0.00;;;0.00;;
38037;SDS011;23843;51.320;12.340;2023-12-20T05:09:47;0.20;;;0.20;;
38037;SDS011;23843;51.320;12.340;2023-12-20T05:12:14;0.10;;;0.10;;
38037;SDS011;23843;51.320;12.340;2023-12-20T05:14:40;0.10;;;0.10;;
38037;SDS011;23843;51.320;12.340;2023-12-20T05:17:05;0.10;;;0.10;;
38037;SDS011;23843;51.320;12.340;2023-12-20T05:19:31;0.10;;;0.10;;
38037;SDS011;23843;51.320;12.340;2023-12-20T05:21:56;0.10;;;0.10;;
38037;SDS011;23843;51.320;12.340;2023-12-20T05:24:22;0.10;;;0.10;;
38037;SDS011;23843;51.320;12.340;2023-12-20T05:26:47;0.10;;;0.10;;
38037;SDS011;23843;51.320;12.340;2023-12-20T05:29:14;0.00;;;0.00;;
38037;SDS011;23843;51.320;12.340;2023-12-20T05:31:39;0.10;;;0.10;;
38037;SDS011;23843;51.320;12.340;2023-12-20T05:34:05;0.33;;;0.20;;
38037;SDS011;23843;51.320;12.340;2023-12-20T05:36:30;0.20;;;0.20;;
38037;SDS011;23843;51.320;12.340;2023-12-20T05:38:56;0.20;;;0.10;;
38037;SDS011;23843;51.320;12.340;2023-12-20T05:41:21;0.10;;;0.10;;
38037;SDS011;23843;51.320;12.340;2023-12-20T05:43:47;0.00;;;0.00;;
38037;SDS011;23843;51.320;12.340;2023-12-20T05:46:14;0.10;;;0.10;;
38037;SDS011;23843;51.320;12.340;2023-12-20T05:48:39;0.10;;;0.10;;
38037;SDS011;23843;51.320;12.340;2023-12-20T05:51:05;0.10;;;0.10;;
38037;SDS011;23843;51.320;12.340;2023-12-20T05:53:30;0.10;;;0.10;;
38037;SDS011;23843;51.320;12.340;2023-12-20T05:55:56;0.10;;;0.10;;
38037;SDS011;23843;51.320;12.340;2023-12-20T05:58:21;0.17;;;0.17;;
38037;SDS011;23843;51.320;12.340;2023-12-20T06:00:47;0.00;;;0.00;;
38037;SDS011;23843;51.320;12.340;2023-12-20T06:03:13;0.10;;;0.07;;
38037;SDS011;23843;51.320;12.340;2023-12-20T06:05:39;0.00;;;0.00;;
38037;SDS011;23843;51.320;12.340;2023-12-20T06:08:05;0.00;;;0.00;;
38037;SDS011;23843;51.320;12.340;2023-12-20T06:10:31;0.10;;;0.10;;
38037;SDS011;23843;51.320;12.340;2023-12-20T06:12:56;0.00;;;0.00;;
38037;SDS011;23843;51.320;12.340;2023-12-20T06:15:22;0.10;;;0.10;;
38037;SDS011;23843;51.320;12.340;2023-12-20T06:17:47;0.50;;;0.50;;
38037;SDS011;23843;51.320;12.340;2023-12-20T06:20:14;0.10;;;0.10;;
38037;SDS011;23843;51.320;12.340;2023-12-20T06:22:40;0.07;;;0.07;;
38037;SDS011;23843;51.320;12.340;2023-12-20T06:25:05;0.10;;;0.10;;
38037;SDS011;23843;51.320;12.340;2023-12-20T06:27:31;0.07;;;0.07;;
38037;SDS011;23843;51.320;12.340;2023-12-20T06:29:57;0.50;;;0.50;;
38037;SDS011;23843;51.320;12.340;2023-12-20T06:32:22;0.00;;;0.00;;
38037;SDS011;23843;51.320;12.340;2023-12-20T06:34:48;0.10;;;0.10;;
38037;SDS011;23843;51.320;12.340;2023-12-20T06:37:15;0.03;;;0.03;;
38037;SDS011;23843;51.320;12.340;2023-12-20T06:39:40;0.10;;;0.10;;
38037;SDS011;23843;51.320;12.340;2023-12-20T06:42:06;0.00;;;0.00;;
38037;SDS011;23843;51.320;12.340;2023-12-20T06:44:31;0.10;;;0.10;;
38037;SDS011;23843;51.320;12.340;2023-12-20T06:46:57;0.10;;;0.10;;
38037;SDS011;23843;51.320;12.340;2023-12-20T06:49:23;0.10;;;0.10;;
38037;SDS011;23843;51.320;12.340;2023-12-20T06:51:48;0.20;;;0.20;;
38037;SDS011;23843;51.320;12.340;2023-12-20T06:54:15;0.20;;;0.20;;
38037;SDS011;23843;51.320;12.340;2023-12-20T06:56:41;0.10;;;0.10;;
38037;SDS011;23843;51.320;12.340;2023-12-20T06:59:06;0.40;;;0.37;;
38037;SDS011;23843;51.320;12.340;2023-12-20T07:01:32;0.30;;;0.27;;
38037;SDS011;23843;51.320;12.340;2023-12-20T07:03:57;0.10;;;0.10;;
38037;SDS011;23843;51.320;12.340;2023-12-20T07:06:23;0.10;;;0.10;;
38037;SDS011;23843;51.320;12.340;2023-12-20T07:08:48;0.20;;;0.20;;
38037;SDS011;23843;51.320;12.340;2023-12-20T07:11:15;0.10;;;0.10;;
38037;SDS011;23843;51.320;12.340;2023-12-20T07:13:40;0.20;;;0.20;;
38037;SDS011;23843;51.320;12.340;2023-12-20T07:16:06;0.10;;;0.10;;
38037;SDS011;23843;51.320;12.340;2023-12-20T07:18:31;0.10;;;0.10;;
38037;SDS011;23843;51.320;12.340;2023-12-20T07:20:57;0.07;;;0.07;;
38037;SDS011;23843;51.320;12.340;2023-12-20T07:23:22;0.10;;;0.10;;
38037;SDS011;23843;51.320;12.340;2023-12-20T07:25:48;0.10;;;0.10;;
38037;SDS011;23843;51.320;12.340;2023-12-20T07:28:15;0.00;;;0.00;;
38037;SDS011;23843;51.320;12.340;2023-12-20T07:30:40;0.10;;;0.10;;
38037;SDS011;23843;51.320;12.340;2023-12-20T07:33:06;0.17;;;0.10;;
38037;SDS011;23843;51.320;12.340;2023-12-20T07:35:31;0.17;;;0.10;;
38037;SDS011;23843;51.320;12.340;2023-12-20T07:37:57;0.00;;;0.00;;
38037;SDS011;23843;51.320;12.340;2023-12-20T07:40:22;0.10;;;0.10;;
38037;SDS011;23843;51.320;12.340;2023-12-20T07:42:48;0.10;;;0.10;;
38037;SDS011;23843;51.320;12.340;2023-12-20T07:45:15;0.00;;;0.00;;
38037;SDS011;23843;51.320;12.340;2023-12-20T07:47:40;0.10;;;0.10;;
38037;SDS011;23843;51.320;12.340;2023-12-20T07:50:06;0.23;;;0.20;;
38037;SDS011;23843;51.320;12.340;2023-12-20T07:52:32;0.30;;;0.20;;
38037;SDS011;23843;51.320;12.340;2023-12-20T07:54:57;0.23;;;0.23;;
38037;SDS011;23843;51.320;12.340;2023-12-20T07:57:23;0.30;;;0.20;;
38037;SDS011;23843;51.320;12.340;2023-12-20T07:59:48;0.13;;;0.13;;
38037;SDS011;23843;51.320;12.340;2023-12-20T08:02:15;0.60;;;0.60;;
38037;SDS011;23843;51.320;12.340;2023-12-20T08:04:41;0.10;;;0.10;;
38037;SDS011;23843;51.320;12.340;2023-12-20T08:07:07;0.10;;;0.10;;
38037;SDS011;23843;51.320;12.340;2023-12-20T08:09:32;0.10;;;0.10;;
38037;SDS011;23843;51.320;12.340;2023-12-20T08:11:57;0.10;;;0.10;;
38037;SDS011;23843;51.320;12.340;2023-12-20T08:14:23;0.20;;;0.20;;
38037;SDS011;23843;51.320;12.340;2023-12-20T08:16:48;0.00;;;0.00;;
38037;SDS011;23843;51.320;12.340;2023-12-20T08:19:15;0.10;;;0.10;;
38037;SDS011;23843;51.320;12.340;2023-12-20T08:21:41;0.00;;;0.00;;
38037;SDS011;23843;51.320;12.340;2023-12-20T08:24:06;0.13;;;0.10;;
38037;SDS011;23843;51.320;12.340;2023-12-20T08:26:33;0.10;;;0.10;;
38037;SDS011;23843;51.320;12.340;2023-12-20T08:28:58;0.10;;;0.10;;
38037;SDS011;23843;51.320;12.340;2023-12-20T08:31:24;0.10;;;0.10;;
38037;SDS011;23843;51.320;12.340;2023-12-20T08:33:49;0.10;;;0.10;;
38037;SDS011;23843;51.320;12.340;2023-12-20T08:36:16;0.10;;;0.10;;
38037;SDS011;23843;51.320;12.340;2023-12-20T08:38:42;0.40;;;0.20;;
38037;SDS011;23843;51.320;12.340;2023-12-20T08:41:07;0.10;;;0.10;;
38037;SDS011;23843;51.320;12.340;2023-12-20T08:43:33;1.30;;;0.30;;
38037;SDS011;23843;51.320;12.340;2023-12-20T08:45:59;0.20;;;0.20;;
38037;SDS011;23843;51.320;12.340;2023-12-20T08:48:25;0.10;;;0.10;;
38037;SDS011;23843;51.320;12.340;2023-12-20T08:50:50;0.53;;;0.20;;
38037;SDS011;23843;51.320;12.340;2023-12-20T08:53:17;0.87;;;0.20;;
38037;SDS011;23843;51.320;12.340;2023-12-20T08:55:43;0.80;;;0.30;;
38037;SDS011;23843;51.320;12.340;2023-12-20T08:58:09;0.73;;;0.70;;
38037;SDS011;23843;51.320;12.340;2023-12-20T09:00:35;0.40;;;0.37;;
38037;SDS011;23843;51.320;12.340;2023-12-20T09:03:00;0.30;;;0.27;;
38037;SDS011;23843;51.320;12.340;2023-12-20T09:05:26;0.10;;;0.10;;
38037;SDS011;23843;51.320;12.340;2023-12-20T09:07:51;0.13;;;0.03;;
38037;SDS011;23843;51.320;12.340;2023-12-20T09:10:18;0.20;;;0.10;;
38037;SDS011;23843;51.320;12.340;2023-12-20T09:12:44;0.20;;;0.20;;
38037;SDS011;23843;51.320;12.340;2023-12-20T09:15:10;0.63;;;0.20;;
38037;SDS011;23843;51.320;12.340;2023-12-20T09:17:35;0.10;;;0.10;;
38037;SDS011;23843;51.320;12.340;2023-12-20T09:20:01;0.30;;;0.10;;
38037;SDS011;23843;51.320;12.340;2023-12-20T09:22:26;0.20;;;0.20;;
38037;SDS011;23843;51.320;12.340;2023-12-20T09:24:52;0.20;;;0.17;;
38037;SDS011;23843;51.320;12.340;2023-12-20T09:27:18;0.47;;;0.40;;
38037;SDS011;23843;51.320;12.340;2023-12-20T09:29:44;0.87;;;0.20;;
38037;SDS011;23843;51.320;12.340;2023-12-20T09:32:09;0.37;;;0.30;;
38037;SDS011;23843;51.320;12.340;2023-12-20T09:34:35;0.20;;;0.20;;
38037;SDS011;23843;51.320;12.340;2023-12-20T09:37:00;0.10;;;0.10;;
38037;SDS011;23843;51.320;12.340;2023-12-20T09:39:26;1.33;;;0.50;;
38037;SDS011;23843;51.320;12.340;2023-12-20T09:41:55;0.97;;;0.30;;
38037;SDS011;23843;51.320;12.340;2023-12-20T09:44:27;0.37;;;0.37;;
38037;SDS011;23843;51.320;12.340;2023-12-20T09:46:52;1.37;;;0.50;;
38037;SDS011;23843;51.320;12.340;2023-12-20T09:49:20;0.67;;;0.50;;
38037;SDS011;23843;51.320;12.340;2023-12-20T09:51:46;1.37;;;0.63;;
38037;SDS011;23843;51.320;12.340;2023-12-20T09:54:12;0.70;;;0.50;;
38037;SDS011;23843;51.320;12.340;2023-12-20T09:56:39;1.97;;;0.70;;
38037;SDS011;23843;51.320;12.340;2023-12-20T09:59:04;0.93;;;0.50;;
38037;SDS011;23843;51.320;12.340;2023-12-20T10:01:31;0.70;;;0.50;;
38037;SDS011;23843;51.320;12.340;2023-12-20T10:03:59;0.80;;;0.60;;
38037;SDS011;23843;51.320;12.340;2023-12-20T10:06:26;1.10;;;0.60;;
38037;SDS011;23843;51.320;12.340;2023-12-20T10:08:51;1.07;;;0.70;;
38037;SDS011;23843;51.320;12.340;2023-12-20T10:11:17;1.23;;;0.60;;
38037;SDS011;23843;51.320;12.340;2023-12-20T10:13:43;0.50;;;0.50;;
38037;SDS011;23843;51.320;12.340;2023-12-20T10:16:09;0.50;;;0.40;;
38037;SDS011;23843;51.320;12.340;2023-12-20T10:18:36;0.60;;;0.50;;
38037;SDS011;23843;51.320;12.340;2023-12-20T10:21:01;0.93;;;0.67;;
38037;SDS011;23843;51.320;12.340;2023-12-20T10:23:27;1.27;;;0.70;;
38037;SDS011;23843;51.320;12.340;2023-12-20T10:25:56;1.10;;;0.70;;
38037;SDS011;23843;51.320;12.340;2023-12-20T10:28:21;0.93;;;0.70;;
38037;SDS011;23843;51.320;12.340;2023-12-20T10:30:47;0.83;;;0.60;;
38037;SDS011;23843;51.320;12.340;2023-12-20T10:33:12;0.93;;;0.80;;
38037;SDS011;23843;51.320;12.340;2023-12-20T10:35:39;1.20;;;0.60;;
38037;SDS011;23843;51.320;12.340;2023-12-20T10:38:05;1.13;;;0.60;;
38037;SDS011;23843;51.320;12.340;2023-12-20T10:40:31;0.93;;;0.73;;
38037;SDS011;23843;51.320;12.340;2023-12-20T10:42:59;0.63;;;0.40;;
38037;SDS011;23843;51.320;12.340;2023-12-20T10:45:27;1.00;;;0.50;;
38037;SDS011;23843;51.320;12.340;2023-12-20T10:47:52;0.93;;;0.63;;
38037;SDS011;23843;51.320;12.340;2023-12-20T10:50:18;0.70;;;0.60;;
38037;SDS011;23843;51.320;12.340;2023-12-20T10:52:45;1.23;;;0.53;;
38037;SDS011;23843;51.320;12.340;2023-12-20T10:55:12;1.53;;;0.60;;
38037;SDS011;23843;51.320;12.340;2023-12-20T10:57:38;0.50;;;0.50;;
38037;SDS011;23843;51.320;12.340;2023-12-20T11:00:04;0.93;;;0.53;;
38037;SDS011;23843;51.320;12.340;2023-12-20T11:02:33;0.80;;;0.53;;
38037;SDS011;23843;51.320;12.340;2023-12-20T11:05:04;0.97;;;0.70;;
38037;SDS011;23843;51.320;12.340;2023-12-20T11:07:36;0.67;;;0.60;;
38037;SDS011;23843;51.320;12.340;2023-12-20T11:10:12;0.50;;;0.40;;
38037;SDS011;23843;51.320;12.340;2023-12-20T11:12:44;2.33;;;0.70;;
38037;SDS011;23843;51.320;12.340;2023-12-20T11:15:16;0.53;;;0.43;;
38037;SDS011;23843;51.320;12.340;2023-12-20T11:17:44;1.23;;;0.67;;
38037;SDS011;23843;51.320;12.340;2023-12-20T11:20:10;0.90;;;0.50;;
38037;SDS011;23843;51.320;12.340;2023-12-20T11:22:36;0.70;;;0.57;;
38037;SDS011;23843;51.320;12.340;2023-12-20T11:25:03;2.30;;;0.80;;
38037;SDS011;23843;51.320;12.340;2023-12-20T11:27:31;0.67;;;0.50;;
38037;SDS011;23843;51.320;12.340;2023-12-20T11:29:57;0.87;;;0.50;;
38037;SDS011;23843;51.320;12.340;2023-12-20T11:32:29;0.53;;;0.40;;
38037;SDS011;23843;51.320;12.340;2023-12-20T11:34:55;1.57;;;0.70;;
38037;SDS011;23843;51.320;12.340;2023-12-20T11:37:21;3.17;;;0.90;;
38037;SDS011;23843;51.320;12.340;2023-12-20T11:39:53;1.47;;;0.70;;
38037;SDS011;23843;51.320;12.340;2023-12-20T11:42:20;1.03;;;0.57;;
38037;SDS011;23843;51.320;12.340;2023-12-20T11:44:46;1.07;;;0.63;;
38037;SDS011;23843;51.320;12.340;2023-12-20T11:47:13;0.40;;;0.40;;
38037;SDS011;23843;51.320;12.340;2023-12-20T11:49:38;2.30;;;0.70;;
38037;SDS011;23843;51.320;12.340;2023-12-20T11:52:04;1.10;;;0.60;;
38037;SDS011;23843;51.320;12.340;2023-12-20T11:54:30;1.07;;;0.60;;
38037;SDS011;23843;51.320;12.340;2023-12-20T11:56:55;0.70;;;0.50;;
38037;SDS011;23843;51.320;12.340;2023-12-20T11:59:21;1.03;;;0.40;;
38037;SDS011;23843;51.320;12.340;2023-12-20T12:01:51;0.97;;;0.50;;
38037;SDS011;23843;51.320;12.340;2023-12-20T12:04:16;0.97;;;0.60;;
38037;SDS011;23843;51.320;12.340;2023-12-20T12:06:42;2.23;;;0.60;;
38037;SDS011;23843;51.320;12.340;2023-12-20T12:09:07;1.23;;;0.60;;
38037;SDS011;23843;51.320;12.340;2023-12-20T12:11:33;2.80;;;0.70;;
38037;SDS011;23843;51.320;12.340;2023-12-20T12:13:59;1.70;;;0.70;;
38037;SDS011;23843;51.320;12.340;2023-12-20T12:16:25;1.00;;;0.70;;
38037;SDS011;23843;51.320;12.340;2023-12-20T12:18:58;1.23;;;0.50;;
38037;SDS011;23843;51.320;12.340;2023-12-20T12:21:23;1.87;;;0.80;;
38037;SDS011;23843;51.320;12.340;2023-12-20T12:23:49;1.87;;;0.87;;
38037;SDS011;23843;51.320;12.340;2023-12-20T12:26:15;1.53;;;0.63;;
38037;SDS011;23843;51.320;12.340;2023-12-20T12:28:41;3.57;;;0.90;;
38037;SDS011;23843;51.320;12.340;2023-12-20T12:31:07;0.53;;;0.53;;
38037;SDS011;23843;51.320;12.340;2023-12-20T12:33:33;0.70;;;0.50;;
38037;SDS011;23843;51.320;12.340;2023-12-20T12:36:00;0.50;;;0.50;;
38037;SDS011;23843;51.320;12.340;2023-12-20T12:38:26;1.33;;;0.60;;
38037;SDS011;23843;51.320;12.340;2023-12-20T12:40:51;0.90;;;0.60;;
38037;SDS011;23843;51.320;12.340;2023-12-20T12:43:17;1.53;;;0.87;;
38037;SDS011;23843;51.320;12.340;2023-12-20T12:45:42;1.40;;;1.07;;
38037;SDS011;23843;51.320;12.340;2023-12-20T12:48:08;1.10;;;0.60;;
38037;SDS011;23843;51.320;12.340;2023-12-20T12:50:34;0.40;;;0.40;;
38037;SDS011;23843;51.320;12.340;2023-12-20T12:53:00;1.17;;;0.50;;
38037;SDS011;23843;51.320;12.340;2023-12-20T12:55:26;0.83;;;0.57;;
38037;SDS011;23843;51.320;12.340;2023-12-20T12:57:52;0.60;;;0.50;;
38037;SDS011;23843;51.320;12.340;2023-12-20T13:00:17;2.60;;;0.57;;
38037;SDS011;23843;51.320;12.340;2023-12-20T13:02:43;0.50;;;0.40;;
38037;SDS011;23843;51.320;12.340;2023-12-20T13:05:09;0.70;;;0.43;;
38037;SDS011;23843;51.320;12.340;2023-12-20T13:07:34;0.40;;;0.40;;
38037;SDS011;23843;51.320;12.340;2023-12-20T13:10:01;0.87;;;0.40;;
38037;SDS011;23843;51.320;12.340;2023-12-20T13:12:27;1.03;;;0.60;;
38037;SDS011;23843;51.320;12.340;2023-12-20T13:14:52;0.53;;;0.50;;
38037;SDS011;23843;51.320;12.340;2023-12-20T13:17:18;2.13;;;0.53;;
38037;SDS011;23843;51.320;12.340;2023-12-20T13:19:45;0.40;;;0.37;;
38037;SDS011;23843;51.320;12.340;2023-12-20T13:22:10;0.30;;;0.30;;
38037;SDS011;23843;51.320;12.340;2023-12-20T13:24:36;0.47;;;0.30;;
38037;SDS011;23843;51.320;12.340;2023-12-20T13:27:02;1.00;;;0.60;;
38037;SDS011;23843;51.320;12.340;2023-12-20T13:29:28;2.77;;;0.90;;
38037;SDS011;23843;51.320;12.340;2023-12-20T13:31:54;1.93;;;0.83;;
38037;SDS011;23843;51.320;12.340;2023-12-20T13:34:19;1.20;;;0.70;;
38037;SDS011;23843;51.320;12.340;2023-12-20T13:36:45;0.93;;;0.60;;
38037;SDS011;23843;51.320;12.340;2023-12-20T13:39:10;0.50;;;0.50;;
38037;SDS011;23843;51.320;12.340;2023-12-20T13:41:36;1.47;;;0.80;;
38037;SDS011;23843;51.320;12.340;2023-12-20T13:44:03;0.87;;;0.47;;
38037;SDS011;23843;51.320;12.340;2023-12-20T13:46:29;1.53;;;0.47;;
38037;SDS011;23843;51.320;12.340;2023-12-20T13:48:54;1.70;;;0.80;;
38037;SDS011;23843;51.320;12.340;2023-12-20T13:51:20;0.70;;;0.60;;
38037;SDS011;23843;51.320;12.340;2023-12-20T13:53:45;0.80;;;0.60;;
38037;SDS011;23843;51.320;12.340;2023-12-20T13:56:11;1.10;;;0.60;;
38037;SDS011;23843;51.320;12.340;2023-12-20T13:58:36;0.60;;;0.40;;
38037;SDS011;23843;51.320;12.340;2023-12-20T14:01:03;0.80;;;0.60;;
38037;SDS011;23843;51.320;12.340;2023-12-20T14:03:29;0.90;;;0.70;;
38037;SDS011;23843;51.320;12.340;2023-12-20T14:05:55;0.63;;;0.47;;
38037;SDS011;23843;51.320;12.340;2023-12-20T14:08:20;0.40;;;0.40;;
38037;SDS011;23843;51.320;12.340;2023-12-20T14:10:46;0.70;;;0.50;;
38037;SDS011;23843;51.320;12.340;2023-12-20T14:13:11;0.87;;;0.50;;
38037;SDS011;23843;51.320;12.340;2023-12-20T14:15:37;0.97;;;0.70;;
38037;SDS011;23843;51.320;12.340;2023-12-20T14:18:04;1.10;;;0.40;;
38037;SDS011;23843;51.320;12.340;2023-12-20T14:20:30;0.47;;;0.43;;
38037;SDS011;23843;51.320;12.340;2023-12-20T14:22:56;0.30;;;0.30;;
38037;SDS011;23843;51.320;12.340;2023-12-20T14:25:21;0.70;;;0.70;;